Time;durP1;ratioP1;P1;durP2;ratioP2;P2;SDS_P1;SDS_P2;PMS_P1;PMS_P2;Temp;Humidity;BMP_temperature;BMP_pressure;BME280_temperature;BME280_humidity;BME280_pressure;Samples;Min_cycle;Max_cycle;Signal;HPM_P1;HPM_P2
2022/04/12 00:03:09;;;;;;;7.30;5.68;;;;;;;7.49;50.88;100328.41;8600390;33;20828;-76
2022/04/12 00:08:14;;;;;;;10.43;5.75;;;;;;;7.43;51.26;100329.69;8600708;33;20139;-76
2022/04/12 00:13:18;;;;;;;9.90;6.45;;;;;;;7.39;51.28;100312.16;8600287;33;20472;-76
2022/04/12 00:23:43;;;;;;;11.55;5.90;;;;;;;7.27;51.53;100299.66;8606278;33;20423;-76
2022/04/12 00:28:46;;;;;;;10.70;6.68;;;;;;;7.22;51.59;100301.78;8605807;33;20535;-76
2022/04/12 00:33:49;;;;;;;15.27;7.32;;;;;;;7.09;51.79;100291.06;8577455;33;20191;-76
2022/04/12 00:38:53;;;;;;;10.93;6.25;;;;;;;7.19;51.88;100284.13;8601045;33;20147;-77
2022/04/12 00:43:56;;;;;;;9.02;6.35;;;;;;;7.21;51.53;100286.69;8600760;33;21354;-74
2022/04/12 00:48:59;;;;;;;10.20;6.05;;;;;;;7.11;52.09;100283.81;8598392;33;20438;-75
2022/04/12 00:54:05;;;;;;;10.27;6.50;;;;;;;7.04;52.00;100275.31;8599226;33;20410;-75
2022/04/12 00:59:09;;;;;;;11.43;6.03;;;;;;;6.93;52.59;100269.00;8597595;33;20404;-75
2022/04/12 01:04:12;;;;;;;11.82;7.28;;;;;;;6.91;52.34;100266.47;8599372;33;20360;-75
2022/04/12 01:09:17;;;;;;;13.77;6.70;;;;;;;6.94;52.07;100273.38;8601646;33;20292;-75
2022/04/12 01:14:20;;;;;;;9.88;6.55;;;;;;;6.92;52.20;100264.66;8602426;33;20147;-75
2022/04/12 01:19:24;;;;;;;11.63;6.80;;;;;;;6.85;52.02;100262.34;8598507;33;20517;-75
2022/04/12 01:24:29;;;;;;;11.88;6.55;;;;;;;6.92;51.78;100251.28;8598968;33;20396;-75
2022/04/12 01:29:36;;;;;;;10.13;6.80;;;;;;;6.92;51.97;100246.81;8605319;33;20174;-75
2022/04/12 01:34:39;;;;;;;11.75;6.78;;;;;;;6.84;51.92;100241.94;8609909;33;20147;-75
2022/04/12 01:39:43;;;;;;;10.93;7.22;;;;;;;6.76;51.54;100233.59;8608701;33;20182;-75
2022/04/12 01:44:46;;;;;;;11.15;6.53;;;;;;;6.74;51.29;100230.16;8607723;33;21778;-74
2022/04/12 01:49:49;;;;;;;10.82;5.95;;;;;;;6.84;51.30;100223.25;8608492;33;20415;-76
2022/04/12 01:54:54;;;;;;;10.85;5.95;;;;;;;6.92;50.96;100209.41;8608362;33;20416;-76
2022/04/12 01:59:57;;;;;;;10.48;6.30;;;;;;;7.05;50.73;100212.09;8604013;33;20274;-76
2022/04/12 02:05:00;;;;;;;10.75;6.15;;;;;;;7.06;50.80;100200.44;8604905;33;21062;-76
2022/04/12 02:10:06;;;;;;;10.07;6.63;;;;;;;7.03;50.78;100201.53;8578902;33;20489;-76
2022/04/12 02:15:10;;;;;;;10.85;6.38;;;;;;;7.06;51.14;100205.78;8604333;33;20400;-76
2022/04/12 02:20:13;;;;;;;12.95;7.18;;;;;;;7.00;50.95;100207.06;8605145;33;20167;-76
2022/04/12 02:25:17;;;;;;;11.35;6.57;;;;;;;6.88;51.01;100209.72;8603986;33;20187;-76
2022/04/12 02:30:20;;;;;;;11.88;6.80;;;;;;;6.95;50.84;100203.00;8607616;33;20438;-76
2022/04/12 02:35:24;;;;;;;10.55;6.65;;;;;;;6.92;51.25;100203.22;8582714;33;20428;-76
2022/04/12 02:40:29;;;;;;;12.70;6.80;;;;;;;6.99;50.86;100215.19;8607723;33;20490;-76
2022/04/12 02:45:32;;;;;;;10.85;5.80;;;;;;;6.88;50.72;100218.59;8605104;33;20565;-75
2022/04/12 02:50:35;;;;;;;11.70;6.38;;;;;;;7.05;50.59;100204.09;8601153;33;20240;-76
2022/04/12 02:55:39;;;;;;;12.30;7.03;;;;;;;6.98;50.47;100210.81;8593260;33;20161;-76
2022/04/12 03:00:42;;;;;;;7.55;5.47;;;;;;;6.99;50.80;100191.16;8593261;33;20438;-76
2022/04/12 03:05:45;;;;;;;10.48;6.05;;;;;;;6.93;51.00;100187.09;8567665;33;20496;-76
2022/04/12 03:10:50;;;;;;;14.07;6.38;;;;;;;6.92;51.29;100197.88;8590949;33;20445;-76
2022/04/12 03:15:53;;;;;;;9.13;5.82;;;;;;;6.87;51.57;100203.53;8591719;33;20195;-76
2022/04/12 03:20:56;;;;;;;10.82;6.25;;;;;;;6.78;52.03;100198.81;8592302;33;20193;-76
2022/04/12 03:26:00;;;;;;;10.82;6.13;;;;;;;6.63;52.81;100200.69;8591942;33;20618;-76
2022/04/12 03:31:04;;;;;;;11.10;6.63;;;;;;;6.53;52.62;100203.13;8573068;33;20452;-76
2022/04/12 03:36:07;;;;;;;8.90;6.35;;;;;;;6.43;53.06;100203.84;8600068;33;20119;-76
2022/04/12 03:41:11;;;;;;;10.52;6.20;;;;;;;6.39;53.13;100208.53;8605752;33;20904;-76
2022/04/12 03:46:15;;;;;;;11.02;6.65;;;;;;;6.38;53.25;100196.97;8616444;33;20425;-76
2022/04/12 03:51:18;;;;;;;10.32;6.60;;;;;;;6.28;53.65;100184.34;8617182;33;20713;-76
2022/04/12 03:56:23;;;;;;;8.50;5.85;;;;;;;6.33;53.65;100193.75;8615970;33;20554;-76
2022/04/12 04:01:28;;;;;;;9.43;6.05;;;;;;;6.23;53.81;100187.34;8605943;33;20299;-76
2022/04/12 04:06:31;;;;;;;10.73;6.10;;;;;;;6.20;53.92;100205.34;8605258;33;20931;-75
2022/04/12 04:11:39;;;;;;;10.82;6.72;;;;;;;6.18;53.71;100197.47;8603326;33;20925;-76
2022/04/12 04:16:42;;;;;;;10.32;6.47;;;;;;;6.09;53.88;100190.06;8597460;33;20568;-76
2022/04/12 04:21:45;;;;;;;8.40;6.10;;;;;;;6.08;53.91;100193.66;8598654;33;22564;-76
2022/04/12 04:26:55;;;;;;;11.65;5.65;;;;;;;6.04;54.08;100174.38;8598556;33;20550;-76
2022/04/12 04:31:58;;;;;;;12.95;6.65;;;;;;;5.95;54.26;100156.28;8602290;33;20147;-76
2022/04/12 04:37:01;;;;;;;13.23;6.38;;;;;;;5.90;54.41;100153.94;8597528;33;20175;-76
2022/04/12 04:42:06;;;;;;;10.95;6.18;;;;;;;5.90;54.21;100150.41;8598426;33;20142;-76
2022/04/12 04:47:09;;;;;;;9.02;5.82;;;;;;;5.95;54.05;100143.81;8596172;33;21089;-76
2022/04/12 04:52:12;;;;;;;9.15;6.03;;;;;;;6.05;53.92;100151.22;8596409;33;20974;-76
2022/04/12 04:57:17;;;;;;;9.65;5.60;;;;;;;5.97;53.99;100154.38;8596759;33;20437;-75
2022/04/12 05:02:20;;;;;;;13.30;6.95;;;;;;;6.14;53.63;100158.59;8596982;33;20245;-76
2022/04/12 05:07:26;;;;;;;9.30;5.82;;;;;;;6.35;53.32;100154.50;8592082;33;20201;-76
2022/04/12 05:12:30;;;;;;;9.13;5.50;;;;;;;6.35;53.65;100141.16;8588071;33;20449;-76
2022/04/12 05:17:34;;;;;;;9.73;5.63;;;;;;;6.41;53.17;100139.91;8589132;33;20980;-75
2022/04/12 05:22:37;;;;;;;10.70;5.90;;;;;;;6.50;53.08;100147.28;8577015;33;20185;-76
2022/04/12 05:27:43;;;;;;;10.40;5.55;;;;;;;6.46;53.11;100150.25;8606352;33;20285;-75
2022/04/12 05:32:47;;;;;;;11.68;6.45;;;;;;;6.66;52.77;100157.75;8608221;33;20441;-76
2022/04/12 05:37:52;;;;;;;11.30;5.95;;;;;;;6.67;53.03;100167.50;8574317;33;20162;-74
2022/04/12 05:42:56;;;;;;;8.70;5.82;;;;;;;6.80;52.40;100160.34;8597609;33;20552;-74
2022/04/12 05:48:05;;;;;;;12.82;6.22;;;;;;;6.96;52.16;100170.84;8597107;33;20570;-75
2022/04/12 05:53:13;;;;;;;9.65;5.70;;;;;;;7.19;52.42;100173.75;8598361;33;20190;-74
2022/04/12 05:58:17;;;;;;;10.98;5.47;;;;;;;7.17;51.81;100183.69;8596319;33;20640;-75
2022/04/12 06:03:20;;;;;;;8.70;5.57;;;;;;;7.39;51.83;100197.22;8597559;33;20463;-75
2022/04/12 06:08:23;;;;;;;11.55;6.40;;;;;;;7.36;51.23;100209.97;8597242;33;20925;-75
2022/04/12 06:13:29;;;;;;;11.18;6.53;;;;;;;7.53;51.58;100206.94;8595749;33;21002;-74
2022/04/12 06:18:32;;;;;;;9.18;6.13;;;;;;;7.48;51.47;100204.59;8605060;33;20139;-74
2022/04/12 06:23:35;;;;;;;9.45;5.97;;;;;;;7.63;51.34;100201.81;8609822;33;20205;-75
2022/04/12 06:28:39;;;;;;;9.30;6.10;;;;;;;7.80;51.06;100206.78;8608321;33;21600;-74
2022/04/12 06:33:42;;;;;;;8.38;6.13;;;;;;;8.02;50.83;100213.25;8609672;33;20507;-75
2022/04/12 06:38:45;;;;;;;9.65;5.78;;;;;;;8.08;50.81;100208.28;8609075;33;21343;-74
2022/04/12 06:43:49;;;;;;;11.45;5.68;;;;;;;8.29;51.13;100213.03;8607727;33;20155;-75
2022/04/12 06:48:53;;;;;;;11.05;6.57;;;;;;;8.64;49.37;100223.84;8605806;33;20428;-75
2022/04/12 06:53:56;;;;;;;9.98;6.00;;;;;;;8.96;49.21;100212.47;8606888;33;20505;-74
2022/04/12 06:59:04;;;;;;;7.75;5.88;;;;;;;9.34;48.31;100203.28;8605479;33;20486;-75
2022/04/12 07:04:07;;;;;;;11.40;6.28;;;;;;;9.50;47.58;100203.78;8598397;33;20190;-75
2022/04/12 07:09:17;;;;;;;8.68;6.05;;;;;;;9.85;47.60;100194.72;8595526;33;21355;-74
2022/04/12 07:14:22;;;;;;;8.55;6.68;;;;;;;9.81;46.91;100212.03;8592657;33;20975;-74
2022/04/12 07:19:25;;;;;;;10.07;5.90;;;;;;;9.79;47.27;100213.97;8594178;33;20230;-74
2022/04/12 07:24:28;;;;;;;9.23;6.00;;;;;;;9.88;47.93;100203.41;8598184;33;20540;-75
2022/04/12 07:29:33;;;;;;;9.38;5.78;;;;;;;10.04;47.57;100199.47;8596686;33;21078;-75
2022/04/12 07:34:36;;;;;;;9.40;5.90;;;;;;;10.25;47.20;100215.66;8594548;33;20144;-75
2022/04/12 07:39:39;;;;;;;10.10;6.13;;;;;;;10.46;46.94;100223.75;8592439;33;20151;-75
2022/04/12 07:44:43;;;;;;;10.00;6.80;;;;;;;10.77;46.52;100214.81;8595276;33;21561;-75
2022/04/12 07:49:46;;;;;;;8.68;6.22;;;;;;;11.35;45.45;100219.75;8592216;33;20435;-75
2022/04/12 07:54:49;;;;;;;10.77;6.93;;;;;;;11.65;45.47;100210.00;8594492;33;20448;-75
2022/04/12 07:59:54;;;;;;;11.27;6.65;;;;;;;11.35;45.00;100205.47;8593090;33;20443;-75
2022/04/12 08:04:57;;;;;;;12.90;6.70;;;;;;;11.71;44.09;100201.38;8595131;33;20155;-75
2022/04/12 08:10:00;;;;;;;13.30;6.60;;;;;;;11.75;45.09;100201.97;8596299;33;20287;-75
2022/04/12 08:15:06;;;;;;;10.30;6.85;;;;;;;11.90;44.07;100192.50;8598329;33;20444;-74
2022/04/12 08:20:11;;;;;;;9.75;6.30;;;;;;;12.02;44.42;100188.72;8604750;33;20421;-74
2022/04/12 08:25:13;;;;;;;10.63;6.35;;;;;;;12.76;42.64;100184.69;8600749;33;20812;-75
2022/04/12 08:30:18;;;;;;;12.23;6.50;;;;;;;13.11;43.04;100191.28;8596365;33;21967;-75
2022/04/12 08:35:21;;;;;;;8.65;5.75;;;;;;;13.47;43.07;100193.22;8597529;33;22004;-74
2022/04/12 08:40:25;;;;;;;10.75;6.28;;;;;;;13.73;41.91;100187.13;8598447;33;20411;-74
2022/04/12 08:45:31;;;;;;;12.07;6.25;;;;;;;13.80;40.58;100193.63;8596964;33;20191;-74
2022/04/12 08:50:37;;;;;;;9.20;6.13;;;;;;;13.97;40.48;100193.81;8605315;33;20653;-74
2022/04/12 08:55:41;;;;;;;10.93;6.15;;;;;;;13.84;41.85;100192.31;8616629;33;20694;-74
2022/04/12 09:00:46;;;;;;;10.27;6.53;;;;;;;14.09;41.86;100185.34;8603575;33;20209;-74
2022/04/12 09:05:49;;;;;;;12.02;6.50;;;;;;;14.56;41.21;100184.31;8600452;33;20147;-74
2022/04/12 09:10:59;;;;;;;11.15;6.82;;;;;;;14.94;40.56;100175.00;8602382;33;20166;-74
2022/04/12 09:16:09;;;;;;;11.95;6.40;;;;;;;15.14;40.05;100172.97;8600615;33;20139;-74
2022/04/12 09:21:23;;;;;;;10.50;6.80;;;;;;;15.00;40.55;100166.28;8601482;33;20557;-73
2022/04/12 09:26:29;;;;;;;14.77;6.85;;;;;;;15.40;39.79;100159.44;8604678;33;20499;-74
2022/04/12 09:31:35;;;;;;;11.85;7.13;;;;;;;15.29;39.82;100151.56;8603578;33;20151;-74
2022/04/12 09:36:38;;;;;;;11.25;6.95;;;;;;;15.40;39.37;100145.06;8603401;33;20504;-74
2022/04/12 09:41:41;;;;;;;12.57;7.50;;;;;;;15.92;39.32;100147.63;8604780;33;20517;-74
2022/04/12 09:46:47;;;;;;;11.18;7.07;;;;;;;15.95;39.49;100130.22;8604641;33;20416;-75
2022/04/12 09:51:50;;;;;;;12.07;7.15;;;;;;;16.07;39.65;100126.16;8605262;33;21944;-75
2022/04/12 09:56:57;;;;;;;13.18;7.10;;;;;;;16.16;38.43;100122.47;8609082;33;20921;-75
2022/04/12 10:02:22;;;;;;;11.90;7.10;;;;;;;16.44;38.95;100120.31;8605725;33;20416;-74
2022/04/12 10:07:27;;;;;;;10.43;7.45;;;;;;;16.87;37.50;100115.56;8622001;33;20399;-75
2022/04/12 10:12:31;;;;;;;11.52;6.95;;;;;;;16.91;37.97;100110.63;8622153;33;20473;-75
2022/04/12 10:17:36;;;;;;;12.00;6.85;;;;;;;17.36;36.89;100110.03;8622714;33;20486;-75
2022/04/12 10:22:40;;;;;;;11.65;6.25;;;;;;;17.62;35.98;100096.16;8623661;33;20147;-75
2022/04/12 10:27:43;;;;;;;12.23;6.78;;;;;;;17.71;35.62;100099.66;8620440;33;20228;-75
2022/04/12 10:33:01;;;;;;;12.30;7.40;;;;;;;17.63;35.72;100100.56;8608852;33;20471;-75
2022/04/12 10:38:04;;;;;;;11.50;6.88;;;;;;;18.06;35.35;100092.88;8615890;33;20422;-75
2022/04/12 10:43:29;;;;;;;12.88;6.97;;;;;;;18.71;35.96;100098.81;8609269;33;20197;-75
2022/04/12 10:48:34;;;;;;;10.13;7.15;;;;;;;18.74;35.49;100099.28;8604568;33;20136;-75
2022/04/12 10:53:57;;;;;;;13.00;7.60;;;;;;;19.18;35.93;100089.50;8605817;33;20191;-75
2022/04/12 10:59:01;;;;;;;10.43;6.65;;;;;;;19.26;34.37;100086.69;8598061;33;20403;-75
2022/04/12 11:04:06;;;;;;;12.95;6.95;;;;;;;19.11;34.90;100081.22;8600577;33;20144;-75
2022/04/12 11:09:15;;;;;;;13.77;7.93;;;;;;;19.11;35.29;100070.34;8598686;33;20185;-75
2022/04/12 11:14:24;;;;;;;13.30;7.55;;;;;;;19.24;35.21;100078.69;8599268;33;20189;-75
2022/04/12 11:19:41;;;;;;;10.40;6.40;;;;;;;19.99;34.42;100068.53;8598695;33;21062;-76
2022/04/12 11:25:13;;;;;;;14.32;7.40;;;;;;;19.97;35.25;100059.72;8594973;33;20235;-76
2022/04/12 11:30:16;;;;;;;14.38;7.85;;;;;;;21.16;33.37;100040.75;8597530;33;20561;-75
2022/04/12 11:35:23;;;;;;;12.30;7.22;;;;;;;21.84;31.57;100042.72;8599085;33;20462;-74
2022/04/12 11:40:26;;;;;;;12.27;7.25;;;;;;;22.02;31.15;100044.84;8597375;33;20405;-74
2022/04/12 11:45:33;;;;;;;13.45;7.60;;;;;;;22.77;30.91;100045.56;8598479;33;20408;-74
2022/04/12 11:50:37;;;;;;;11.93;7.72;;;;;;;22.49;29.69;100043.88;8598942;33;20635;-74
2022/04/12 11:56:03;;;;;;;11.15;7.10;;;;;;;22.96;29.98;100041.09;8596641;33;20418;-74
2022/04/12 12:01:07;;;;;;;11.50;7.65;;;;;;;23.04;30.06;100049.09;8597471;33;20491;-75
2022/04/12 12:06:12;;;;;;;11.48;6.95;;;;;;;23.24;28.58;100040.81;8592144;33;20407;-75
2022/04/12 12:11:15;;;;;;;11.57;6.90;;;;;;;23.35;30.31;100044.78;8591298;33;20683;-75
2022/04/12 12:16:18;;;;;;;10.00;5.80;;;;;;;23.33;28.99;100033.19;8591457;33;20570;-75
2022/04/12 12:21:30;;;;;;;12.32;6.93;;;;;;;24.26;28.04;100030.78;8592532;33;20427;-75
2022/04/12 12:26:33;;;;;;;11.30;6.72;;;;;;;23.90;28.92;100017.75;8596868;33;20426;-75
2022/04/12 12:31:46;;;;;;;9.40;5.78;;;;;;;24.18;27.68;100011.00;8600387;33;20425;-75
2022/04/12 12:36:51;;;;;;;8.52;6.00;;;;;;;24.29;27.53;100008.38;8578753;33;20154;-74
2022/04/12 12:41:58;;;;;;;6.50;4.63;;;;;;;23.86;28.18;100033.81;8602600;33;21490;-74
2022/04/12 12:47:04;;;;;;;7.43;5.22;;;;;;;23.35;28.57;100011.91;8603018;33;20488;-74
2022/04/12 12:52:11;;;;;;;7.35;4.50;;;;;;;23.35;28.80;100011.91;8603189;33;20682;-74
2022/04/12 12:57:16;;;;;;;6.88;4.75;;;;;;;23.09;27.80;99999.09;8598860;33;20201;-75
2022/04/12 13:02:19;;;;;;;7.55;4.50;;;;;;;23.78;27.63;100003.91;8601789;33;20189;-75
2022/04/12 13:07:32;;;;;;;6.03;4.30;;;;;;;24.87;27.46;99988.00;8614132;33;20489;-74
2022/04/12 13:12:37;;;;;;;7.95;4.38;;;;;;;25.44;25.53;99976.75;8603932;33;20163;-75
2022/04/12 13:17:41;;;;;;;6.63;4.28;;;;;;;25.29;26.07;100001.09;8602915;33;20159;-74
2022/04/12 13:22:47;;;;;;;7.00;4.03;;;;;;;25.27;26.53;99984.81;8607585;33;20616;-74
2022/04/12 13:27:52;;;;;;;6.70;4.82;;;;;;;23.17;27.92;99979.72;8611553;33;20128;-74
2022/04/12 13:32:56;;;;;;;7.05;4.50;;;;;;;22.57;29.77;99974.38;8613160;33;20399;-74
2022/04/12 13:38:00;;;;;;;5.70;4.22;;;;;;;22.75;29.26;99962.78;8612444;33;20143;-74
2022/04/12 13:43:05;;;;;;;5.20;3.78;;;;;;;22.65;29.88;99970.59;8624109;33;20232;-74
2022/04/12 13:48:09;;;;;;;6.25;4.30;;;;;;;22.88;29.24;99964.66;8625020;33;20402;-74
2022/04/12 13:53:15;;;;;;;5.63;3.97;;;;;;;23.07;28.32;99965.63;8625957;33;20410;-75
2022/04/12 13:58:18;;;;;;;5.90;3.88;;;;;;;22.67;29.69;99952.91;8627959;33;20570;-74
2022/04/12 14:03:21;;;;;;;5.45;4.30;;;;;;;23.17;29.52;99961.38;8630158;33;20681;-74
2022/04/12 14:08:26;;;;;;;6.20;4.40;;;;;;;22.43;30.36;99950.81;8634227;33;20136;-74
2022/04/12 14:13:30;;;;;;;6.50;4.05;;;;;;;22.11;30.75;99947.91;8639041;33;20419;-75
2022/04/12 14:18:33;;;;;;;7.47;4.55;;;;;;;21.96;30.82;99939.06;8632686;33;20186;-75
2022/04/12 14:23:39;;;;;;;9.55;5.07;;;;;;;21.25;31.40;99929.44;8628029;33;20196;-75
2022/04/12 14:28:42;;;;;;;7.05;4.93;;;;;;;21.22;31.70;99935.31;8626135;33;20272;-74
2022/04/12 14:33:45;;;;;;;7.57;5.10;;;;;;;21.00;32.35;99929.94;8622197;33;20594;-74
2022/04/12 14:38:49;;;;;;;7.20;4.63;;;;;;;20.70;32.45;99925.81;8610739;33;20240;-74
2022/04/12 14:43:52;;;;;;;7.47;4.15;;;;;;;20.30;33.09;99922.84;8616653;33;20404;-74
2022/04/12 14:48:56;;;;;;;6.55;4.43;;;;;;;19.76;33.57;99921.56;8607056;33;20915;-74
2022/04/12 14:54:00;;;;;;;7.32;4.32;;;;;;;19.19;34.41;99897.91;8603585;33;20124;-75
2022/04/12 14:59:03;;;;;;;8.80;4.97;;;;;;;19.16;34.63;99887.41;8603637;33;20189;-75
2022/04/12 15:04:07;;;;;;;7.40;4.75;;;;;;;19.15;34.75;99896.59;8604372;33;20605;-75
2022/04/12 15:09:11;;;;;;;7.53;4.60;;;;;;;19.49;33.80;99904.06;8592822;33;20139;-74
2022/04/12 15:14:14;;;;;;;7.57;4.80;;;;;;;20.28;33.49;99905.81;8606051;33;20420;-74
2022/04/12 15:19:18;;;;;;;7.10;4.40;;;;;;;20.76;32.43;99904.03;8599610;33;20477;-74
2022/04/12 15:24:25;;;;;;;7.43;4.30;;;;;;;21.25;32.66;99907.59;8601681;33;20242;-74
2022/04/12 15:29:28;;;;;;;7.85;4.25;;;;;;;21.11;32.84;99898.53;8604055;33;20186;-74
2022/04/12 15:34:31;;;;;;;6.03;4.03;;;;;;;20.71;32.49;99905.69;8604308;33;20143;-74
2022/04/12 15:39:37;;;;;;;7.47;4.55;;;;;;;20.73;33.01;99907.19;8604256;33;20147;-74
2022/04/12 15:44:40;;;;;;;6.53;4.78;;;;;;;20.54;34.16;99907.88;8603942;33;21426;-75
2022/04/12 15:49:43;;;;;;;10.82;5.20;;;;;;;20.09;34.69;99904.63;8602948;33;20143;-75
2022/04/12 15:54:53;;;;;;;6.97;5.07;;;;;;;20.02;34.50;99904.59;8599677;33;20444;-75
2022/04/12 15:59:56;;;;;;;8.45;5.40;;;;;;;19.86;34.65;99905.72;8578233;33;20179;-75
2022/04/12 16:05:01;;;;;;;10.18;4.63;;;;;;;20.04;35.15;99902.50;8600425;33;20419;-75
2022/04/12 16:10:06;;;;;;;9.40;5.20;;;;;;;20.06;34.80;99896.84;8588725;33;20434;-76
2022/04/12 16:15:09;;;;;;;8.38;6.00;;;;;;;19.84;34.72;99902.34;8600636;33;21068;-75
2022/04/12 16:20:12;;;;;;;10.63;5.95;;;;;;;19.78;35.10;99903.13;8590889;33;20417;-75
2022/04/12 16:25:17;;;;;;;12.90;5.80;;;;;;;19.55;35.35;99899.72;8603149;33;20413;-75
2022/04/12 16:30:22;;;;;;;9.27;5.60;;;;;;;19.58;35.71;99896.66;8603945;33;20213;-75
2022/04/12 16:35:26;;;;;;;9.15;5.90;;;;;;;19.30;36.58;99897.38;8602105;33;21105;-75
2022/04/12 16:40:31;;;;;;;12.18;6.80;;;;;;;19.12;37.26;99895.13;8595141;33;20418;-75
2022/04/12 16:45:34;;;;;;;9.57;6.15;;;;;;;18.87;37.19;99905.50;8596720;33;20186;-75
2022/04/12 16:50:37;;;;;;;11.98;7.00;;;;;;;18.64;37.47;99891.97;8597671;33;20412;-75
2022/04/12 16:55:42;;;;;;;15.30;7.32;;;;;;;18.68;37.51;99900.63;8603267;33;21041;-75
2022/04/12 17:00:45;;;;;;;11.70;6.95;;;;;;;18.39;37.95;99896.03;8577787;33;20234;-75
2022/04/12 17:05:48;;;;;;;12.35;7.50;;;;;;;18.24;37.84;99896.84;8600640;33;20186;-75
2022/04/12 17:10:52;;;;;;;14.02;8.10;;;;;;;17.92;38.58;99906.97;8601670;33;20476;-74
2022/04/12 17:15:55;;;;;;;14.35;8.45;;;;;;;17.76;38.78;99903.56;8601336;33;20435;-75
2022/04/12 17:20:58;;;;;;;12.45;7.97;;;;;;;17.72;38.85;99908.53;8605383;33;20407;-75
2022/04/12 17:26:03;;;;;;;12.15;7.85;;;;;;;17.59;39.04;99903.69;8605341;33;20930;-75
2022/04/12 17:31:07;;;;;;;11.80;7.75;;;;;;;17.37;39.65;99912.69;8615833;33;20422;-75
2022/04/12 17:36:10;;;;;;;14.23;8.27;;;;;;;17.23;40.12;99911.59;8618163;33;21098;-75
2022/04/12 17:41:15;;;;;;;12.93;7.35;;;;;;;17.15;40.10;99915.19;8619704;33;20497;-75
2022/04/12 17:46:18;;;;;;;14.02;8.45;;;;;;;17.01;40.80;99916.78;8621348;33;20131;-75
2022/04/12 17:51:21;;;;;;;14.20;8.65;;;;;;;16.98;40.80;99914.41;8623759;33;20139;-75
2022/04/12 17:56:26;;;;;;;14.35;9.40;;;;;;;16.84;40.52;99923.31;8621642;33;20179;-74
2022/04/12 18:01:29;;;;;;;12.50;8.18;;;;;;;16.63;41.35;99926.59;8617034;33;20257;-74
2022/04/12 18:06:32;;;;;;;13.57;8.75;;;;;;;16.42;41.97;99929.03;8615478;33;20156;-74
2022/04/12 18:11:36;;;;;;;14.55;9.30;;;;;;;16.23;42.28;99943.78;8621410;33;20183;-73
2022/04/12 18:16:39;;;;;;;15.68;8.55;;;;;;;16.12;42.45;99945.81;8619144;33;20531;-74
2022/04/12 18:21:42;;;;;;;15.77;8.50;;;;;;;16.06;42.33;99954.63;8619428;33;20403;-74
2022/04/12 18:26:53;;;;;;;16.93;9.60;;;;;;;15.90;42.69;99963.59;8620255;33;20404;-74
2022/04/12 18:31:56;;;;;;;15.00;9.43;;;;;;;15.69;43.24;99971.41;8621838;33;20235;-74
2022/04/12 18:37:00;;;;;;;15.50;9.23;;;;;;;15.68;43.16;99984.06;8623459;33;20246;-75
2022/04/12 18:42:04;;;;;;;15.50;8.77;;;;;;;15.46;43.61;99977.44;8623370;33;20148;-75
2022/04/12 18:47:08;;;;;;;15.30;8.82;;;;;;;15.49;43.59;99984.38;8613444;33;20492;-75
2022/04/12 18:52:11;;;;;;;15.93;9.60;;;;;;;15.45;43.67;99988.44;8607314;33;20242;-75
2022/04/12 18:57:16;;;;;;;14.45;8.93;;;;;;;15.36;44.00;99995.69;8608540;33;20589;-75
2022/04/12 19:02:19;;;;;;;14.60;9.20;;;;;;;15.22;44.39;99993.56;8610303;33;20167;-76
2022/04/12 19:07:25;;;;;;;16.85;9.63;;;;;;;15.08;44.58;100013.13;8607171;33;20187;-75
2022/04/12 19:12:30;;;;;;;13.40;8.93;;;;;;;15.00;44.45;100012.13;8606035;33;21063;-75
2022/04/12 19:17:33;;;;;;;15.10;9.55;;;;;;;14.95;44.20;100022.56;8607315;33;20472;-75
2022/04/12 19:22:36;;;;;;;12.50;8.48;;;;;;;14.85;44.27;100015.59;8607472;33;20410;-76
2022/04/12 19:27:41;;;;;;;14.40;9.10;;;;;;;14.80;43.64;100021.47;8585828;33;21043;-76
2022/04/12 19:32:44;;;;;;;12.18;8.43;;;;;;;14.83;43.66;100030.09;8620074;33;20282;-76
2022/04/12 19:37:48;;;;;;;10.40;7.65;;;;;;;14.85;43.30;100021.84;8613470;33;20179;-76
2022/04/12 19:42:52;;;;;;;10.40;7.53;;;;;;;14.65;43.64;100023.94;8610062;33;20293;-76
2022/04/12 19:47:56;;;;;;;12.85;8.55;;;;;;;14.48;44.08;100022.97;8605208;33;20189;-75
2022/04/12 19:52:59;;;;;;;10.80;8.23;;;;;;;14.50;43.30;100030.91;8604645;33;20459;-76
2022/04/12 19:58:07;;;;;;;12.88;8.23;;;;;;;14.50;43.92;100029.03;8606575;33;20844;-76
2022/04/12 20:03:10;;;;;;;11.93;7.95;;;;;;;14.47;44.12;100026.66;8605881;33;20403;-75
2022/04/12 20:08:15;;;;;;;11.00;7.38;;;;;;;14.40;43.89;100027.44;8605616;33;20171;-76
2022/04/12 20:13:20;;;;;;;10.02;7.63;;;;;;;14.36;43.99;100030.44;8604322;33;20436;-75
2022/04/12 20:18:23;;;;;;;14.52;9.98;;;;;;;14.23;44.46;100021.88;8604542;33;22207;-76
2022/04/12 20:23:27;;;;;;;15.98;9.50;;;;;;;14.22;44.42;100025.59;8603082;33;21881;-73
2022/04/12 20:28:31;;;;;;;11.82;7.72;;;;;;;14.14;44.57;100020.97;8603016;33;20464;-76
2022/04/12 20:33:34;;;;;;;12.95;7.68;;;;;;;14.16;44.43;100020.84;8598827;33;20982;-75
2022/04/12 20:38:37;;;;;;;11.40;8.75;;;;;;;14.05;44.51;100019.22;8602998;33;20477;-75
2022/04/12 20:43:42;;;;;;;11.55;7.90;;;;;;;14.02;44.50;100024.09;8597619;33;21791;-75
2022/04/12 20:48:45;;;;;;;10.98;8.38;;;;;;;13.94;44.50;100022.16;8596347;33;21954;-75
2022/04/12 20:53:48;;;;;;;11.68;8.10;;;;;;;13.92;44.62;100011.50;8597747;33;20188;-76
2022/04/12 20:58:52;;;;;;;11.82;8.18;;;;;;;13.92;44.68;100018.78;8599724;33;20179;-76
2022/04/12 21:03:55;;;;;;;12.32;7.93;;;;;;;13.78;45.01;100014.75;8596793;33;20414;-74
2022/04/12 21:08:58;;;;;;;10.73;7.32;;;;;;;13.78;44.91;100019.31;8598890;33;20547;-75
2022/04/12 21:14:03;;;;;;;10.07;7.60;;;;;;;13.68;44.63;100020.22;8598081;33;20456;-75
2022/04/12 21:19:06;;;;;;;9.68;7.00;;;;;;;13.71;44.73;100024.47;8596999;33;20254;-75
2022/04/12 21:24:09;;;;;;;8.13;6.32;;;;;;;13.63;44.57;100014.47;8602169;33;21525;-75
2022/04/12 21:29:14;;;;;;;8.75;6.40;;;;;;;13.58;44.71;100018.63;8602245;33;20451;-76
2022/04/12 21:34:19;;;;;;;8.70;6.57;;;;;;;13.60;44.62;100014.78;8603361;33;20473;-75
2022/04/12 21:39:22;;;;;;;9.73;6.70;;;;;;;13.54;44.27;100006.41;8602448;33;20268;-75
2022/04/12 21:44:26;;;;;;;9.38;6.97;;;;;;;13.56;44.29;100016.06;8605625;33;20439;-75
2022/04/12 21:49:29;;;;;;;9.88;6.57;;;;;;;13.51;44.43;100010.28;8606851;33;20422;-75
2022/04/12 21:54:33;;;;;;;8.90;5.18;;;;;;;13.47;44.32;100012.44;8609077;33;20483;-75
2022/04/12 21:59:38;;;;;;;9.57;6.15;;;;;;;13.42;44.06;100009.34;8607250;33;20932;-75
2022/04/12 22:04:41;;;;;;;7.30;5.63;;;;;;;13.46;44.32;100009.88;8608427;33;20187;-75
2022/04/12 22:09:44;;;;;;;9.43;5.93;;;;;;;13.42;44.30;100017.44;8608235;33;21426;-75
2022/04/12 22:14:48;;;;;;;9.13;5.57;;;;;;;13.40;44.21;100014.03;8609190;33;20190;-76
2022/04/12 22:19:51;;;;;;;7.85;4.93;;;;;;;13.37;44.26;100018.88;8609233;33;20398;-76
2022/04/12 22:24:54;;;;;;;7.45;4.97;;;;;;;13.42;43.70;100022.81;8605814;33;20431;-75
2022/04/12 22:29:59;;;;;;;7.05;4.90;;;;;;;13.43;43.73;100034.47;8615763;33;21342;-75
2022/04/12 22:35:03;;;;;;;7.65;4.80;;;;;;;13.27;44.00;100040.47;8622498;33;20441;-75
2022/04/12 22:40:07;;;;;;;7.93;5.53;;;;;;;13.17;44.27;100032.44;8616115;33;20495;-75
2022/04/12 22:45:13;;;;;;;7.13;5.32;;;;;;;13.14;44.49;100038.16;8608532;33;20407;-75
2022/04/12 22:50:17;;;;;;;7.13;4.28;;;;;;;13.17;44.58;100029.75;8605137;33;20151;-75
2022/04/12 22:55:20;;;;;;;6.97;4.70;;;;;;;13.16;44.58;100038.81;8600632;33;20418;-76
2022/04/12 23:00:27;;;;;;;6.68;4.82;;;;;;;13.14;45.00;100040.84;8600967;33;21855;-76
2022/04/12 23:05:30;;;;;;;6.03;4.57;;;;;;;13.05;44.72;100036.31;8605236;33;20599;-75
2022/04/12 23:10:33;;;;;;;6.15;4.25;;;;;;;13.11;44.62;100041.16;8604834;33;20411;-75
2022/04/12 23:15:38;;;;;;;7.00;4.40;;;;;;;13.10;44.81;100042.13;8604582;33;20475;-75
2022/04/12 23:20:44;;;;;;;6.68;4.30;;;;;;;13.06;44.88;100040.75;8604258;33;20413;-76
2022/04/12 23:25:47;;;;;;;8.77;4.28;;;;;;;12.98;45.17;100040.63;8602280;33;20501;-75
2022/04/12 23:30:53;;;;;;;7.30;4.70;;;;;;;12.90;45.53;100045.91;8601311;33;21792;-75
2022/04/12 23:35:56;;;;;;;7.03;4.13;;;;;;;12.84;45.74;100044.66;8607036;33;20462;-75
2022/04/12 23:40:59;;;;;;;4.95;4.40;;;;;;;12.75;46.32;100049.09;8605865;33;20463;-74